sensor_id;sensor_type;location;lat;lon;timestamp;temperature;humidity
20977;DHT22;10647;51.016;3.720;2023-05-07T00:01:29;19.70;99.90
20977;DHT22;10647;51.016;3.720;2023-05-07T00:03:57;19.60;99.90
20977;DHT22;10647;51.016;3.720;2023-05-07T00:06:25;19.60;99.90
20977;DHT22;10647;51.016;3.720;2023-05-07T00:08:55;19.60;99.90
20977;DHT22;10647;51.016;3.720;2023-05-07T00:11:23;19.60;99.90
20977;DHT22;10647;51.016;3.720;2023-05-07T00:13:56;19.50;99.90
20977;DHT22;10647;51.016;3.720;2023-05-07T00:16:24;19.50;99.90
20977;DHT22;10647;51.016;3.720;2023-05-07T00:18:53;19.50;99.90
20977;DHT22;10647;51.016;3.720;2023-05-07T00:21:22;19.40;99.90
20977;DHT22;10647;51.016;3.720;2023-05-07T00:23:52;19.40;99.90
20977;DHT22;10647;51.016;3.720;2023-05-07T00:26:19;19.40;99.90
20977;DHT22;10647;51.016;3.720;2023-05-07T00:28:47;19.30;99.90
20977;DHT22;10647;51.016;3.720;2023-05-07T00:31:14;19.30;99.90
20977;DHT22;10647;51.016;3.720;2023-05-07T00:33:42;19.30;99.90
20977;DHT22;10647;51.016;3.720;2023-05-07T00:36:10;19.30;99.90
20977;DHT22;10647;51.016;3.720;2023-05-07T00:38:37;19.30;99.90
20977;DHT22;10647;51.016;3.720;2023-05-07T00:41:05;19.20;99.90
20977;DHT22;10647;51.016;3.720;2023-05-07T00:43:33;19.20;99.90
20977;DHT22;10647;51.016;3.720;2023-05-07T00:46:00;19.20;99.90
20977;DHT22;10647;51.016;3.720;2023-05-07T00:48:30;19.20;99.90
20977;DHT22;10647;51.016;3.720;2023-05-07T00:50:58;19.10;99.90
20977;DHT22;10647;51.016;3.720;2023-05-07T00:53:25;19.10;99.90
20977;DHT22;10647;51.016;3.720;2023-05-07T00:55:53;19.10;99.90
20977;DHT22;10647;51.016;3.720;2023-05-07T00:58:22;19.10;99.90
20977;DHT22;10647;51.016;3.720;2023-05-07T01:00:51;19.10;99.90
20977;DHT22;10647;51.016;3.720;2023-05-07T01:03:19;19.10;99.90
20977;DHT22;10647;51.016;3.720;2023-05-07T01:05:48;19.10;99.90
20977;DHT22;10647;51.016;3.720;2023-05-07T01:08:17;19.10;99.90
20977;DHT22;10647;51.016;3.720;2023-05-07T01:10:47;19.10;99.90
20977;DHT22;10647;51.016;3.720;2023-05-07T01:13:15;19.00;99.90
20977;DHT22;10647;51.016;3.720;2023-05-07T01:15:46;18.90;99.90
20977;DHT22;10647;51.016;3.720;2023-05-07T01:18:13;18.90;99.90
20977;DHT22;10647;51.016;3.720;2023-05-07T01:20:42;18.80;99.90
20977;DHT22;10647;51.016;3.720;2023-05-07T01:23:11;18.80;99.90
20977;DHT22;10647;51.016;3.720;2023-05-07T01:25:39;18.70;99.90
20977;DHT22;10647;51.016;3.720;2023-05-07T01:28:06;18.70;99.90
20977;DHT22;10647;51.016;3.720;2023-05-07T01:30:35;18.60;99.90
20977;DHT22;10647;51.016;3.720;2023-05-07T01:33:13;18.60;99.90
20977;DHT22;10647;51.016;3.720;2023-05-07T01:35:43;18.60;99.90
20977;DHT22;10647;51.016;3.720;2023-05-07T01:38:11;18.60;99.90
20977;DHT22;10647;51.016;3.720;2023-05-07T01:40:39;18.60;99.90
20977;DHT22;10647;51.016;3.720;2023-05-07T01:43:07;18.60;99.90
20977;DHT22;10647;51.016;3.720;2023-05-07T01:45:36;18.60;99.90
20977;DHT22;10647;51.016;3.720;2023-05-07T01:48:04;18.60;99.90
20977;DHT22;10647;51.016;3.720;2023-05-07T01:50:35;18.50;99.90
20977;DHT22;10647;51.016;3.720;2023-05-07T01:53:04;18.50;99.90
20977;DHT22;10647;51.016;3.720;2023-05-07T01:55:34;18.60;99.90
20977;DHT22;10647;51.016;3.720;2023-05-07T01:58:03;18.60;99.90
20977;DHT22;10647;51.016;3.720;2023-05-07T02:00:32;18.50;99.90
20977;DHT22;10647;51.016;3.720;2023-05-07T02:02:59;18.50;99.90
20977;DHT22;10647;51.016;3.720;2023-05-07T02:05:28;18.50;99.90
20977;DHT22;10647;51.016;3.720;2023-05-07T02:07:56;18.40;99.90
20977;DHT22;10647;51.016;3.720;2023-05-07T02:10:24;18.40;99.90
20977;DHT22;10647;51.016;3.720;2023-05-07T02:12:52;18.40;99.90
20977;DHT22;10647;51.016;3.720;2023-05-07T02:15:19;18.40;99.90
20977;DHT22;10647;51.016;3.720;2023-05-07T02:18:07;18.30;99.90
20977;DHT22;10647;51.016;3.720;2023-05-07T02:20:41;18.40;99.90
20977;DHT22;10647;51.016;3.720;2023-05-07T02:23:09;18.30;99.90
20977;DHT22;10647;51.016;3.720;2023-05-07T02:25:37;18.30;99.90
20977;DHT22;10647;51.016;3.720;2023-05-07T02:28:05;18.20;99.90
20977;DHT22;10647;51.016;3.720;2023-05-07T02:30:32;18.20;99.90
20977;DHT22;10647;51.016;3.720;2023-05-07T02:33:00;18.10;99.90
20977;DHT22;10647;51.016;3.720;2023-05-07T02:35:30;18.10;99.90
20977;DHT22;10647;51.016;3.720;2023-05-07T02:37:57;18.00;99.90
20977;DHT22;10647;51.016;3.720;2023-05-07T02:40:25;18.10;99.90
20977;DHT22;10647;51.016;3.720;2023-05-07T02:42:53;18.10;99.90
20977;DHT22;10647;51.016;3.720;2023-05-07T02:45:21;18.10;99.90
20977;DHT22;10647;51.016;3.720;2023-05-07T02:47:49;18.10;99.90
20977;DHT22;10647;51.016;3.720;2023-05-07T02:50:16;18.00;99.90
20977;DHT22;10647;51.016;3.720;2023-05-07T02:52:46;18.10;99.90
20977;DHT22;10647;51.016;3.720;2023-05-07T02:55:15;18.10;99.90
20977;DHT22;10647;51.016;3.720;2023-05-07T02:57:49;18.10;99.90
20977;DHT22;10647;51.016;3.720;2023-05-07T03:00:18;18.10;99.90
20977;DHT22;10647;51.016;3.720;2023-05-07T03:02:46;18.10;99.90
20977;DHT22;10647;51.016;3.720;2023-05-07T03:05:13;18.10;99.90
20977;DHT22;10647;51.016;3.720;2023-05-07T03:07:41;18.00;99.90
20977;DHT22;10647;51.016;3.720;2023-05-07T03:10:10;18.00;99.90
20977;DHT22;10647;51.016;3.720;2023-05-07T03:12:43;18.10;99.90
20977;DHT22;10647;51.016;3.720;2023-05-07T03:15:31;18.00;99.90
20977;DHT22;10647;51.016;3.720;2023-05-07T03:17:58;18.10;99.90
20977;DHT22;10647;51.016;3.720;2023-05-07T03:20:26;18.00;99.90
20977;DHT22;10647;51.016;3.720;2023-05-07T03:22:53;18.10;99.90
20977;DHT22;10647;51.016;3.720;2023-05-07T03:25:21;18.10;99.90
20977;DHT22;10647;51.016;3.720;2023-05-07T03:27:48;18.10;99.90
20977;DHT22;10647;51.016;3.720;2023-05-07T03:30:16;18.20;99.90
20977;DHT22;10647;51.016;3.720;2023-05-07T03:32:44;18.20;99.90
20977;DHT22;10647;51.016;3.720;2023-05-07T03:35:11;18.20;99.90
20977;DHT22;10647;51.016;3.720;2023-05-07T03:37:39;18.30;99.90
20977;DHT22;10647;51.016;3.720;2023-05-07T03:40:07;18.20;99.90
20977;DHT22;10647;51.016;3.720;2023-05-07T03:42:37;18.30;99.90
20977;DHT22;10647;51.016;3.720;2023-05-07T03:45:05;18.30;99.90
20977;DHT22;10647;51.016;3.720;2023-05-07T03:47:33;18.30;99.90
20977;DHT22;10647;51.016;3.720;2023-05-07T03:50:00;18.30;99.90
20977;DHT22;10647;51.016;3.720;2023-05-07T03:52:28;18.30;99.90
20977;DHT22;10647;51.016;3.720;2023-05-07T03:54:55;18.30;99.90
20977;DHT22;10647;51.016;3.720;2023-05-07T03:57:24;18.30;99.90
20977;DHT22;10647;51.016;3.720;2023-05-07T03:59:51;18.30;99.90
20977;DHT22;10647;51.016;3.720;2023-05-07T04:02:19;18.30;99.90
20977;DHT22;10647;51.016;3.720;2023-05-07T04:04:49;18.30;99.90
20977;DHT22;10647;51.016;3.720;2023-05-07T04:07:16;18.30;99.90
20977;DHT22;10647;51.016;3.720;2023-05-07T04:09:44;18.30;99.90
20977;DHT22;10647;51.016;3.720;2023-05-07T04:12:11;18.30;99.90
20977;DHT22;10647;51.016;3.720;2023-05-07T04:14:39;18.30;99.90
20977;DHT22;10647;51.016;3.720;2023-05-07T04:17:06;18.20;99.90
20977;DHT22;10647;51.016;3.720;2023-05-07T04:19:36;18.30;99.90
20977;DHT22;10647;51.016;3.720;2023-05-07T04:22:03;18.30;99.90
20977;DHT22;10647;51.016;3.720;2023-05-07T04:24:34;18.30;99.90
20977;DHT22;10647;51.016;3.720;2023-05-07T04:27:01;18.30;99.90
20977;DHT22;10647;51.016;3.720;2023-05-07T04:29:29;18.30;99.90
20977;DHT22;10647;51.016;3.720;2023-05-07T04:31:57;18.30;99.90
20977;DHT22;10647;51.016;3.720;2023-05-07T04:34:25;18.30;99.90
20977;DHT22;10647;51.016;3.720;2023-05-07T04:36:53;18.30;99.90
20977;DHT22;10647;51.016;3.720;2023-05-07T04:39:20;18.30;99.90
20977;DHT22;10647;51.016;3.720;2023-05-07T04:41:48;18.30;99.90
20977;DHT22;10647;51.016;3.720;2023-05-07T04:44:16;18.30;99.90
20977;DHT22;10647;51.016;3.720;2023-05-07T04:46:43;18.40;99.90
20977;DHT22;10647;51.016;3.720;2023-05-07T04:49:12;18.40;99.90
20977;DHT22;10647;51.016;3.720;2023-05-07T04:51:39;18.40;99.90
20977;DHT22;10647;51.016;3.720;2023-05-07T04:54:09;18.40;99.90
20977;DHT22;10647;51.016;3.720;2023-05-07T04:56:36;18.40;99.90
20977;DHT22;10647;51.016;3.720;2023-05-07T04:59:04;18.50;99.90
20977;DHT22;10647;51.016;3.720;2023-05-07T05:01:32;18.50;99.90
20977;DHT22;10647;51.016;3.720;2023-05-07T05:03:59;18.50;99.90
20977;DHT22;10647;51.016;3.720;2023-05-07T05:06:27;18.60;99.90
20977;DHT22;10647;51.016;3.720;2023-05-07T05:09:00;18.60;99.90
20977;DHT22;10647;51.016;3.720;2023-05-07T05:11:31;18.50;99.90
20977;DHT22;10647;51.016;3.720;2023-05-07T05:13:59;18.50;99.90
20977;DHT22;10647;51.016;3.720;2023-05-07T05:16:28;18.40;99.90
20977;DHT22;10647;51.016;3.720;2023-05-07T05:18:56;18.30;99.90
20977;DHT22;10647;51.016;3.720;2023-05-07T05:21:23;18.20;99.90
20977;DHT22;10647;51.016;3.720;2023-05-07T05:23:51;18.10;99.90
20977;DHT22;10647;51.016;3.720;2023-05-07T05:26:18;18.00;99.90
20977;DHT22;10647;51.016;3.720;2023-05-07T05:28:47;18.10;99.90
20977;DHT22;10647;51.016;3.720;2023-05-07T05:31:20;18.00;99.90
20977;DHT22;10647;51.016;3.720;2023-05-07T05:33:44;18.10;99.90
20977;DHT22;10647;51.016;3.720;2023-05-07T05:36:12;17.90;99.90
20977;DHT22;10647;51.016;3.720;2023-05-07T05:38:42;17.80;99.90
20977;DHT22;10647;51.016;3.720;2023-05-07T05:41:13;17.80;99.90
20977;DHT22;10647;51.016;3.720;2023-05-07T05:43:47;17.60;99.90
20977;DHT22;10647;51.016;3.720;2023-05-07T05:46:15;17.50;99.90
20977;DHT22;10647;51.016;3.720;2023-05-07T05:48:43;17.40;99.90
20977;DHT22;10647;51.016;3.720;2023-05-07T05:51:11;17.40;99.90
20977;DHT22;10647;51.016;3.720;2023-05-07T05:53:41;17.30;99.90
20977;DHT22;10647;51.016;3.720;2023-05-07T05:56:15;17.00;99.90
20977;DHT22;10647;51.016;3.720;2023-05-07T05:58:45;16.90;99.90
20977;DHT22;10647;51.016;3.720;2023-05-07T06:01:16;16.80;99.90
20977;DHT22;10647;51.016;3.720;2023-05-07T06:03:45;16.80;99.90
20977;DHT22;10647;51.016;3.720;2023-05-07T06:06:12;16.80;99.90
20977;DHT22;10647;51.016;3.720;2023-05-07T06:08:46;16.80;99.90
20977;DHT22;10647;51.016;3.720;2023-05-07T06:11:17;16.80;99.90
20977;DHT22;10647;51.016;3.720;2023-05-07T06:13:44;16.80;99.90
20977;DHT22;10647;51.016;3.720;2023-05-07T06:16:17;16.80;99.90
20977;DHT22;10647;51.016;3.720;2023-05-07T06:18:45;16.90;99.90
20977;DHT22;10647;51.016;3.720;2023-05-07T06:21:16;16.90;99.90
20977;DHT22;10647;51.016;3.720;2023-05-07T06:23:49;16.90;99.90
20977;DHT22;10647;51.016;3.720;2023-05-07T06:26:21;16.90;99.90
20977;DHT22;10647;51.016;3.720;2023-05-07T06:28:48;17.10;99.90
20977;DHT22;10647;51.016;3.720;2023-05-07T06:31:31;17.10;99.90
20977;DHT22;10647;51.016;3.720;2023-05-07T06:34:01;17.20;99.90
20977;DHT22;10647;51.016;3.720;2023-05-07T06:36:28;17.20;99.90
20977;DHT22;10647;51.016;3.720;2023-05-07T06:38:56;17.20;99.90
20977;DHT22;10647;51.016;3.720;2023-05-07T06:41:24;17.40;99.90
20977;DHT22;10647;51.016;3.720;2023-05-07T06:43:52;17.50;99.90
20977;DHT22;10647;51.016;3.720;2023-05-07T06:46:19;17.60;99.90
20977;DHT22;10647;51.016;3.720;2023-05-07T06:48:49;17.60;99.90
20977;DHT22;10647;51.016;3.720;2023-05-07T06:51:18;17.70;99.90
20977;DHT22;10647;51.016;3.720;2023-05-07T06:53:45;17.70;99.90
20977;DHT22;10647;51.016;3.720;2023-05-07T06:56:16;17.70;99.90
20977;DHT22;10647;51.016;3.720;2023-05-07T06:58:44;17.70;99.90
20977;DHT22;10647;51.016;3.720;2023-05-07T07:01:15;17.80;99.90
20977;DHT22;10647;51.016;3.720;2023-05-07T07:03:42;17.80;99.90
20977;DHT22;10647;51.016;3.720;2023-05-07T07:06:11;17.80;99.90
20977;DHT22;10647;51.016;3.720;2023-05-07T07:08:39;17.80;99.90
20977;DHT22;10647;51.016;3.720;2023-05-07T07:11:07;17.90;99.90
20977;DHT22;10647;51.016;3.720;2023-05-07T07:13:37;18.00;99.90
20977;DHT22;10647;51.016;3.720;2023-05-07T07:16:07;18.00;99.90
20977;DHT22;10647;51.016;3.720;2023-05-07T07:18:35;18.00;99.90
20977;DHT22;10647;51.016;3.720;2023-05-07T07:21:22;18.00;99.90
20977;DHT22;10647;51.016;3.720;2023-05-07T07:23:50;18.00;99.90
20977;DHT22;10647;51.016;3.720;2023-05-07T07:26:18;18.10;99.90
20977;DHT22;10647;51.016;3.720;2023-05-07T07:28:47;18.10;99.90
20977;DHT22;10647;51.016;3.720;2023-05-07T07:31:17;18.10;99.90
20977;DHT22;10647;51.016;3.720;2023-05-07T07:33:44;18.10;99.90
20977;DHT22;10647;51.016;3.720;2023-05-07T07:36:12;18.10;99.90
20977;DHT22;10647;51.016;3.720;2023-05-07T07:38:39;18.10;99.90
20977;DHT22;10647;51.016;3.720;2023-05-07T07:41:08;18.20;99.90
20977;DHT22;10647;51.016;3.720;2023-05-07T07:43:36;18.20;99.90
20977;DHT22;10647;51.016;3.720;2023-05-07T07:46:03;18.20;99.90
20977;DHT22;10647;51.016;3.720;2023-05-07T07:48:32;18.10;99.90
20977;DHT22;10647;51.016;3.720;2023-05-07T07:50:59;18.10;99.90
20977;DHT22;10647;51.016;3.720;2023-05-07T07:53:27;18.00;99.90
20977;DHT22;10647;51.016;3.720;2023-05-07T07:55:54;17.90;99.90
20977;DHT22;10647;51.016;3.720;2023-05-07T07:58:22;17.90;99.90
20977;DHT22;10647;51.016;3.720;2023-05-07T08:00:57;17.90;99.90
20977;DHT22;10647;51.016;3.720;2023-05-07T08:03:24;17.90;99.90
20977;DHT22;10647;51.016;3.720;2023-05-07T08:05:52;17.90;99.90
20977;DHT22;10647;51.016;3.720;2023-05-07T08:08:19;17.90;99.90
20977;DHT22;10647;51.016;3.720;2023-05-07T08:10:47;18.00;99.90
20977;DHT22;10647;51.016;3.720;2023-05-07T08:13:17;17.90;99.90
20977;DHT22;10647;51.016;3.720;2023-05-07T08:15:45;18.00;99.90
20977;DHT22;10647;51.016;3.720;2023-05-07T08:18:14;18.10;99.90
20977;DHT22;10647;51.016;3.720;2023-05-07T08:20:42;18.10;99.90
20977;DHT22;10647;51.016;3.720;2023-05-07T08:23:09;18.10;99.90
20977;DHT22;10647;51.016;3.720;2023-05-07T08:25:39;18.20;99.90
20977;DHT22;10647;51.016;3.720;2023-05-07T08:28:06;18.20;99.90
20977;DHT22;10647;51.016;3.720;2023-05-07T08:30:34;18.30;99.90
20977;DHT22;10647;51.016;3.720;2023-05-07T08:33:02;18.40;99.90
20977;DHT22;10647;51.016;3.720;2023-05-07T08:35:29;18.50;99.90
20977;DHT22;10647;51.016;3.720;2023-05-07T08:37:57;18.60;99.90
20977;DHT22;10647;51.016;3.720;2023-05-07T08:40:26;18.70;99.90
20977;DHT22;10647;51.016;3.720;2023-05-07T08:42:55;18.80;99.90
20977;DHT22;10647;51.016;3.720;2023-05-07T08:45:32;18.90;99.90
20977;DHT22;10647;51.016;3.720;2023-05-07T08:48:02;19.00;99.90
20977;DHT22;10647;51.016;3.720;2023-05-07T08:50:30;19.10;99.90
20977;DHT22;10647;51.016;3.720;2023-05-07T08:52:58;19.20;99.90
20977;DHT22;10647;51.016;3.720;2023-05-07T08:55:26;19.40;99.90
20977;DHT22;10647;51.016;3.720;2023-05-07T08:57:58;19.40;99.90
20977;DHT22;10647;51.016;3.720;2023-05-07T09:00:26;19.50;99.90
20977;DHT22;10647;51.016;3.720;2023-05-07T09:02:54;19.60;99.90
20977;DHT22;10647;51.016;3.720;2023-05-07T09:05:22;19.60;99.90
20977;DHT22;10647;51.016;3.720;2023-05-07T09:07:51;19.70;99.90
20977;DHT22;10647;51.016;3.720;2023-05-07T09:10:18;19.70;99.90
20977;DHT22;10647;51.016;3.720;2023-05-07T09:12:47;19.90;99.90
20977;DHT22;10647;51.016;3.720;2023-05-07T09:15:14;20.00;99.90
20977;DHT22;10647;51.016;3.720;2023-05-07T09:17:43;20.10;99.90
20977;DHT22;10647;51.016;3.720;2023-05-07T09:20:11;20.20;99.90
20977;DHT22;10647;51.016;3.720;2023-05-07T09:22:39;20.40;99.90
20977;DHT22;10647;51.016;3.720;2023-05-07T09:25:07;20.40;99.90
20977;DHT22;10647;51.016;3.720;2023-05-07T09:27:35;20.40;99.90
20977;DHT22;10647;51.016;3.720;2023-05-07T09:30:06;20.50;99.90
20977;DHT22;10647;51.016;3.720;2023-05-07T09:32:37;20.60;99.90
20977;DHT22;10647;51.016;3.720;2023-05-07T09:35:05;20.80;99.90
20977;DHT22;10647;51.016;3.720;2023-05-07T09:37:34;21.00;99.90
20977;DHT22;10647;51.016;3.720;2023-05-07T09:40:03;21.10;99.90
20977;DHT22;10647;51.016;3.720;2023-05-07T09:42:30;21.20;99.90
20977;DHT22;10647;51.016;3.720;2023-05-07T09:44:59;21.30;99.90
20977;DHT22;10647;51.016;3.720;2023-05-07T09:47:28;21.50;99.90
20977;DHT22;10647;51.016;3.720;2023-05-07T09:49:59;21.60;99.90
20977;DHT22;10647;51.016;3.720;2023-05-07T09:52:27;21.70;99.90
20977;DHT22;10647;51.016;3.720;2023-05-07T09:54:58;21.70;99.90
20977;DHT22;10647;51.016;3.720;2023-05-07T09:57:27;21.90;99.90
20977;DHT22;10647;51.016;3.720;2023-05-07T09:59:57;21.90;99.90
20977;DHT22;10647;51.016;3.720;2023-05-07T10:02:26;22.00;99.90
20977;DHT22;10647;51.016;3.720;2023-05-07T10:04:55;22.10;99.90
20977;DHT22;10647;51.016;3.720;2023-05-07T10:07:24;22.10;99.90
20977;DHT22;10647;51.016;3.720;2023-05-07T10:09:53;22.20;99.90
20977;DHT22;10647;51.016;3.720;2023-05-07T10:12:23;22.10;99.90
20977;DHT22;10647;51.016;3.720;2023-05-07T10:14:52;22.30;99.90
20977;DHT22;10647;51.016;3.720;2023-05-07T10:17:23;22.30;99.90
20977;DHT22;10647;51.016;3.720;2023-05-07T10:19:51;22.40;99.90
20977;DHT22;10647;51.016;3.720;2023-05-07T10:22:20;22.60;99.90
20977;DHT22;10647;51.016;3.720;2023-05-07T10:24:50;22.70;99.90
20977;DHT22;10647;51.016;3.720;2023-05-07T10:27:22;22.90;99.90
20977;DHT22;10647;51.016;3.720;2023-05-07T10:35:37;23.30;99.90
20977;DHT22;10647;51.016;3.720;2023-05-07T10:38:02;23.60;99.90
20977;DHT22;10647;51.016;3.720;2023-05-07T10:40:31;23.70;99.90
20977;DHT22;10647;51.016;3.720;2023-05-07T10:43:01;23.80;99.90
20977;DHT22;10647;51.016;3.720;2023-05-07T10:45:30;23.90;99.90
20977;DHT22;10647;51.016;3.720;2023-05-07T10:48:11;24.00;99.90
20977;DHT22;10647;51.016;3.720;2023-05-07T10:50:40;24.00;99.90
20977;DHT22;10647;51.016;3.720;2023-05-07T10:56:38;24.30;99.90
20977;DHT22;10647;51.016;3.720;2023-05-07T10:58:25;24.40;99.90
20977;DHT22;10647;51.016;3.720;2023-05-07T11:00:58;24.30;99.90
20977;DHT22;10647;51.016;3.720;2023-05-07T11:03:26;24.40;99.90
20977;DHT22;10647;51.016;3.720;2023-05-07T11:06:15;24.40;99.90
20977;DHT22;10647;51.016;3.720;2023-05-07T11:08:55;24.40;99.90
20977;DHT22;10647;51.016;3.720;2023-05-07T11:14:10;24.10;99.90
20977;DHT22;10647;51.016;3.720;2023-05-07T11:16:39;24.10;99.90
20977;DHT22;10647;51.016;3.720;2023-05-07T11:19:07;24.10;99.90
20977;DHT22;10647;51.016;3.720;2023-05-07T11:21:39;24.20;99.90
20977;DHT22;10647;51.016;3.720;2023-05-07T11:24:09;24.40;99.90
20977;DHT22;10647;51.016;3.720;2023-05-07T11:26:48;24.70;99.90
20977;DHT22;10647;51.016;3.720;2023-05-07T11:29:18;25.10;99.90
20977;DHT22;10647;51.016;3.720;2023-05-07T11:31:54;25.30;99.90
20977;DHT22;10647;51.016;3.720;2023-05-07T11:34:23;25.40;99.90
20977;DHT22;10647;51.016;3.720;2023-05-07T11:36:52;25.50;99.90
20977;DHT22;10647;51.016;3.720;2023-05-07T11:39:32;25.50;99.90
20977;DHT22;10647;51.016;3.720;2023-05-07T11:41:56;25.30;99.90
20977;DHT22;10647;51.016;3.720;2023-05-07T11:44:23;25.10;99.90
20977;DHT22;10647;51.016;3.720;2023-05-07T11:46:51;25.00;99.90
20977;DHT22;10647;51.016;3.720;2023-05-07T11:49:20;24.80;99.90
20977;DHT22;10647;51.016;3.720;2023-05-07T11:51:47;24.60;99.90
20977;DHT22;10647;51.016;3.720;2023-05-07T11:54:18;24.60;99.90
20977;DHT22;10647;51.016;3.720;2023-05-07T11:56:45;24.80;99.90
20977;DHT22;10647;51.016;3.720;2023-05-07T11:59:18;25.20;99.90
20977;DHT22;10647;51.016;3.720;2023-05-07T12:01:46;25.70;99.90
20977;DHT22;10647;51.016;3.720;2023-05-07T12:04:14;26.00;99.90
20977;DHT22;10647;51.016;3.720;2023-05-07T12:06:41;26.30;99.90
20977;DHT22;10647;51.016;3.720;2023-05-07T12:09:09;26.60;99.90
20977;DHT22;10647;51.016;3.720;2023-05-07T12:11:38;26.70;99.90
20977;DHT22;10647;51.016;3.720;2023-05-07T12:14:06;27.00;99.90
20977;DHT22;10647;51.016;3.720;2023-05-07T12:16:33;27.00;99.90
20977;DHT22;10647;51.016;3.720;2023-05-07T12:19:02;27.20;99.90
20977;DHT22;10647;51.016;3.720;2023-05-07T12:21:29;27.40;99.90
20977;DHT22;10647;51.016;3.720;2023-05-07T12:23:57;27.50;99.90
20977;DHT22;10647;51.016;3.720;2023-05-07T12:26:25;27.80;99.90
20977;DHT22;10647;51.016;3.720;2023-05-07T12:28:53;27.90;99.90
20977;DHT22;10647;51.016;3.720;2023-05-07T12:31:20;27.90;99.90
20977;DHT22;10647;51.016;3.720;2023-05-07T12:33:48;27.70;99.90
20977;DHT22;10647;51.016;3.720;2023-05-07T12:36:15;27.70;99.90
20977;DHT22;10647;51.016;3.720;2023-05-07T12:38:43;27.50;99.90
20977;DHT22;10647;51.016;3.720;2023-05-07T12:41:11;27.40;99.90
20977;DHT22;10647;51.016;3.720;2023-05-07T12:43:39;27.30;99.90
20977;DHT22;10647;51.016;3.720;2023-05-07T12:46:07;27.40;99.90
20977;DHT22;10647;51.016;3.720;2023-05-07T12:48:37;27.50;99.90
20977;DHT22;10647;51.016;3.720;2023-05-07T12:51:05;27.30;99.90
20977;DHT22;10647;51.016;3.720;2023-05-07T12:53:39;27.30;99.90
20977;DHT22;10647;51.016;3.720;2023-05-07T12:56:06;27.30;99.90
20977;DHT22;10647;51.016;3.720;2023-05-07T12:58:35;27.40;99.90
20977;DHT22;10647;51.016;3.720;2023-05-07T13:01:07;27.20;99.90
20977;DHT22;10647;51.016;3.720;2023-05-07T13:03:37;27.00;99.90
20977;DHT22;10647;51.016;3.720;2023-05-07T13:06:09;27.70;99.90
20977;DHT22;10647;51.016;3.720;2023-05-07T13:08:40;28.20;99.90
20977;DHT22;10647;51.016;3.720;2023-05-07T13:11:10;28.00;99.90
20977;DHT22;10647;51.016;3.720;2023-05-07T13:13:40;28.40;99.90
20977;DHT22;10647;51.016;3.720;2023-05-07T13:16:10;28.50;99.90
20977;DHT22;10647;51.016;3.720;2023-05-07T13:18:39;28.40;99.90
20977;DHT22;10647;51.016;3.720;2023-05-07T13:21:07;28.20;99.90
20977;DHT22;10647;51.016;3.720;2023-05-07T13:23:35;28.00;99.90
20977;DHT22;10647;51.016;3.720;2023-05-07T13:26:04;27.90;99.90
20977;DHT22;10647;51.016;3.720;2023-05-07T13:28:31;27.70;99.90
20977;DHT22;10647;51.016;3.720;2023-05-07T13:30:59;28.00;99.90
20977;DHT22;10647;51.016;3.720;2023-05-07T13:33:26;28.50;99.90
20977;DHT22;10647;51.016;3.720;2023-05-07T13:35:54;28.80;99.90
20977;DHT22;10647;51.016;3.720;2023-05-07T13:38:23;28.70;99.90
20977;DHT22;10647;51.016;3.720;2023-05-07T13:40:51;29.50;99.90
20977;DHT22;10647;51.016;3.720;2023-05-07T13:43:18;29.70;99.90
20977;DHT22;10647;51.016;3.720;2023-05-07T13:45:46;29.80;99.90
20977;DHT22;10647;51.016;3.720;2023-05-07T13:48:14;29.30;99.90
20977;DHT22;10647;51.016;3.720;2023-05-07T13:50:41;28.70;99.90
20977;DHT22;10647;51.016;3.720;2023-05-07T13:53:09;28.20;99.90
20977;DHT22;10647;51.016;3.720;2023-05-07T13:55:36;27.70;99.90
20977;DHT22;10647;51.016;3.720;2023-05-07T13:58:04;27.00;99.90
20977;DHT22;10647;51.016;3.720;2023-05-07T14:00:31;26.60;99.90
20977;DHT22;10647;51.016;3.720;2023-05-07T14:02:59;26.10;99.90
20977;DHT22;10647;51.016;3.720;2023-05-07T14:05:26;25.80;99.90
20977;DHT22;10647;51.016;3.720;2023-05-07T14:07:57;25.10;99.90
20977;DHT22;10647;51.016;3.720;2023-05-07T14:10:25;24.80;99.90
20977;DHT22;10647;51.016;3.720;2023-05-07T14:12:53;24.60;99.90
20977;DHT22;10647;51.016;3.720;2023-05-07T14:15:20;24.30;99.90
20977;DHT22;10647;51.016;3.720;2023-05-07T14:17:48;24.00;99.90
20977;DHT22;10647;51.016;3.720;2023-05-07T14:20:15;23.50;99.90
20977;DHT22;10647;51.016;3.720;2023-05-07T14:22:43;23.50;99.90
20977;DHT22;10647;51.016;3.720;2023-05-07T14:25:11;23.40;99.90
20977;DHT22;10647;51.016;3.720;2023-05-07T14:27:39;23.20;99.90
20977;DHT22;10647;51.016;3.720;2023-05-07T14:30:07;22.70;99.90
20977;DHT22;10647;51.016;3.720;2023-05-07T14:32:35;22.20;99.90
20977;DHT22;10647;51.016;3.720;2023-05-07T14:35:03;21.60;99.90
20977;DHT22;10647;51.016;3.720;2023-05-07T14:37:31;21.50;99.90
20977;DHT22;10647;51.016;3.720;2023-05-07T14:39:58;21.50;99.90
20977;DHT22;10647;51.016;3.720;2023-05-07T14:42:26;21.50;99.90
20977;DHT22;10647;51.016;3.720;2023-05-07T14:44:53;21.40;99.90
20977;DHT22;10647;51.016;3.720;2023-05-07T14:47:22;21.40;99.90
20977;DHT22;10647;51.016;3.720;2023-05-07T14:49:49;21.50;99.90
20977;DHT22;10647;51.016;3.720;2023-05-07T14:52:17;21.60;99.90
20977;DHT22;10647;51.016;3.720;2023-05-07T14:54:45;21.80;99.90
20977;DHT22;10647;51.016;3.720;2023-05-07T14:57:14;21.90;99.90
20977;DHT22;10647;51.016;3.720;2023-05-07T14:59:43;22.10;99.90
20977;DHT22;10647;51.016;3.720;2023-05-07T15:02:12;22.20;99.90
20977;DHT22;10647;51.016;3.720;2023-05-07T15:04:40;22.20;99.90
20977;DHT22;10647;51.016;3.720;2023-05-07T15:07:09;22.30;99.90
20977;DHT22;10647;51.016;3.720;2023-05-07T15:09:36;22.60;99.90
20977;DHT22;10647;51.016;3.720;2023-05-07T15:12:04;23.00;99.90
20977;DHT22;10647;51.016;3.720;2023-05-07T15:14:32;23.30;99.90
20977;DHT22;10647;51.016;3.720;2023-05-07T15:16:59;23.50;99.90
20977;DHT22;10647;51.016;3.720;2023-05-07T15:19:27;23.70;99.90
20977;DHT22;10647;51.016;3.720;2023-05-07T15:21:57;24.00;99.90
20977;DHT22;10647;51.016;3.720;2023-05-07T15:24:26;24.20;99.90
20977;DHT22;10647;51.016;3.720;2023-05-07T15:26:53;24.40;99.90
20977;DHT22;10647;51.016;3.720;2023-05-07T15:29:21;24.60;99.90
20977;DHT22;10647;51.016;3.720;2023-05-07T15:31:49;24.60;99.90
20977;DHT22;10647;51.016;3.720;2023-05-07T15:34:16;24.60;99.90
20977;DHT22;10647;51.016;3.720;2023-05-07T15:36:44;24.70;99.90
20977;DHT22;10647;51.016;3.720;2023-05-07T15:39:11;24.80;99.90
20977;DHT22;10647;51.016;3.720;2023-05-07T15:41:39;24.80;99.90
20977;DHT22;10647;51.016;3.720;2023-05-07T15:44:07;24.90;99.90
20977;DHT22;10647;51.016;3.720;2023-05-07T15:46:34;25.00;99.90
20977;DHT22;10647;51.016;3.720;2023-05-07T15:49:02;25.20;99.90
20977;DHT22;10647;51.016;3.720;2023-05-07T15:51:35;25.30;99.90